sensor_id;sensor_type;location;lat;lon;timestamp;temperature;humidity
8676;DHT22;4375;52.486;13.424;2022-10-28T00:02:12;13.70;99.90
8676;DHT22;4375;52.486;13.424;2022-10-28T00:04:38;13.70;99.90
8676;DHT22;4375;52.486;13.424;2022-10-28T00:07:04;13.70;99.90
8676;DHT22;4375;52.486;13.424;2022-10-28T00:09:30;13.80;99.90
8676;DHT22;4375;52.486;13.424;2022-10-28T00:11:55;13.80;99.90
8676;DHT22;4375;52.486;13.424;2022-10-28T00:14:21;13.80;99.90
8676;DHT22;4375;52.486;13.424;2022-10-28T00:16:47;13.90;99.90
8676;DHT22;4375;52.486;13.424;2022-10-28T00:19:13;13.90;99.90
8676;DHT22;4375;52.486;13.424;2022-10-28T00:21:40;13.90;99.90
8676;DHT22;4375;52.486;13.424;2022-10-28T00:24:08;13.90;99.90
8676;DHT22;4375;52.486;13.424;2022-10-28T00:26:35;13.90;99.90
8676;DHT22;4375;52.486;13.424;2022-10-28T00:29:13;13.90;99.90
8676;DHT22;4375;52.486;13.424;2022-10-28T00:31:39;13.90;99.90
8676;DHT22;4375;52.486;13.424;2022-10-28T00:34:08;13.90;99.90
8676;DHT22;4375;52.486;13.424;2022-10-28T00:36:36;14.00;99.90
8676;DHT22;4375;52.486;13.424;2022-10-28T00:39:09;13.90;99.90
8676;DHT22;4375;52.486;13.424;2022-10-28T00:41:37;14.00;99.90
8676;DHT22;4375;52.486;13.424;2022-10-28T00:47:25;14.00;99.90
8676;DHT22;4375;52.486;13.424;2022-10-28T00:49:56;14.00;99.90
8676;DHT22;4375;52.486;13.424;2022-10-28T00:52:25;14.00;99.90
8676;DHT22;4375;52.486;13.424;2022-10-28T00:54:53;14.10;99.90
8676;DHT22;4375;52.486;13.424;2022-10-28T00:57:23;14.00;99.90
8676;DHT22;4375;52.486;13.424;2022-10-28T00:59:52;14.00;99.90
8676;DHT22;4375;52.486;13.424;2022-10-28T01:02:19;14.00;99.90
8676;DHT22;4375;52.486;13.424;2022-10-28T01:04:45;14.10;99.90
8676;DHT22;4375;52.486;13.424;2022-10-28T01:07:11;14.00;99.90
8676;DHT22;4375;52.486;13.424;2022-10-28T01:09:38;14.00;99.90
8676;DHT22;4375;52.486;13.424;2022-10-28T01:22:59;14.00;99.90
8676;DHT22;4375;52.486;13.424;2022-10-28T01:36:45;14.00;99.90
8676;DHT22;4375;52.486;13.424;2022-10-28T01:39:33;14.00;99.90
8676;DHT22;4375;52.486;13.424;2022-10-28T01:44:50;14.00;99.90
8676;DHT22;4375;52.486;13.424;2022-10-28T01:47:24;14.00;99.90
8676;DHT22;4375;52.486;13.424;2022-10-28T01:50:23;14.00;99.90
8676;DHT22;4375;52.486;13.424;2022-10-28T01:52:52;14.00;99.90
8676;DHT22;4375;52.486;13.424;2022-10-28T01:55:26;13.90;99.90
8676;DHT22;4375;52.486;13.424;2022-10-28T01:57:56;13.90;99.90
8676;DHT22;4375;52.486;13.424;2022-10-28T02:00:23;13.90;99.90
8676;DHT22;4375;52.486;13.424;2022-10-28T02:02:49;13.90;99.90
8676;DHT22;4375;52.486;13.424;2022-10-28T02:05:35;13.90;99.90
8676;DHT22;4375;52.486;13.424;2022-10-28T02:10:51;13.90;99.90
8676;DHT22;4375;52.486;13.424;2022-10-28T02:13:18;13.90;99.90
8676;DHT22;4375;52.486;13.424;2022-10-28T02:21:26;13.80;99.90
8676;DHT22;4375;52.486;13.424;2022-10-28T02:24:37;13.80;99.90
8676;DHT22;4375;52.486;13.424;2022-10-28T02:27:01;13.70;99.90
8676;DHT22;4375;52.486;13.424;2022-10-28T02:29:51;13.70;99.90
8676;DHT22;4375;52.486;13.424;2022-10-28T02:32:24;13.70;99.90
8676;DHT22;4375;52.486;13.424;2022-10-28T02:34:55;13.70;99.90
8676;DHT22;4375;52.486;13.424;2022-10-28T02:37:27;13.60;99.90
8676;DHT22;4375;52.486;13.424;2022-10-28T02:39:56;13.60;99.90
8676;DHT22;4375;52.486;13.424;2022-10-28T02:42:27;13.60;99.90
8676;DHT22;4375;52.486;13.424;2022-10-28T02:44:58;13.60;99.90
8676;DHT22;4375;52.486;13.424;2022-10-28T02:47:29;13.60;99.90
8676;DHT22;4375;52.486;13.424;2022-10-28T02:49:59;13.60;99.90
8676;DHT22;4375;52.486;13.424;2022-10-28T02:52:28;13.60;99.90
8676;DHT22;4375;52.486;13.424;2022-10-28T02:55:00;13.60;99.90
8676;DHT22;4375;52.486;13.424;2022-10-28T02:57:39;13.70;99.90
8676;DHT22;4375;52.486;13.424;2022-10-28T03:00:12;13.60;99.90
8676;DHT22;4375;52.486;13.424;2022-10-28T03:02:39;13.60;99.90
8676;DHT22;4375;52.486;13.424;2022-10-28T03:05:05;13.60;99.90
8676;DHT22;4375;52.486;13.424;2022-10-28T03:07:31;13.60;99.90
8676;DHT22;4375;52.486;13.424;2022-10-28T03:09:57;13.60;99.90
8676;DHT22;4375;52.486;13.424;2022-10-28T03:12:22;13.60;99.90
8676;DHT22;4375;52.486;13.424;2022-10-28T03:14:48;13.50;99.90
8676;DHT22;4375;52.486;13.424;2022-10-28T03:17:14;13.50;99.90
8676;DHT22;4375;52.486;13.424;2022-10-28T03:19:39;13.50;99.90
8676;DHT22;4375;52.486;13.424;2022-10-28T03:22:05;13.50;99.90
8676;DHT22;4375;52.486;13.424;2022-10-28T03:24:31;13.50;99.90
8676;DHT22;4375;52.486;13.424;2022-10-28T03:26:56;13.50;99.90
8676;DHT22;4375;52.486;13.424;2022-10-28T03:29:22;13.50;99.90
8676;DHT22;4375;52.486;13.424;2022-10-28T03:31:48;13.50;99.90
8676;DHT22;4375;52.486;13.424;2022-10-28T03:34:13;13.50;99.90
8676;DHT22;4375;52.486;13.424;2022-10-28T03:36:39;13.50;99.90
8676;DHT22;4375;52.486;13.424;2022-10-28T03:39:04;13.50;99.90
8676;DHT22;4375;52.486;13.424;2022-10-28T03:41:30;13.40;99.90
8676;DHT22;4375;52.486;13.424;2022-10-28T03:43:56;13.40;99.90
8676;DHT22;4375;52.486;13.424;2022-10-28T03:46:21;13.40;99.90
8676;DHT22;4375;52.486;13.424;2022-10-28T03:48:47;13.50;99.90
8676;DHT22;4375;52.486;13.424;2022-10-28T03:51:12;13.40;99.90
8676;DHT22;4375;52.486;13.424;2022-10-28T03:53:38;13.40;99.90
8676;DHT22;4375;52.486;13.424;2022-10-28T03:56:04;13.40;99.90
8676;DHT22;4375;52.486;13.424;2022-10-28T03:58:29;13.40;99.90
8676;DHT22;4375;52.486;13.424;2022-10-28T04:00:55;13.40;99.90
8676;DHT22;4375;52.486;13.424;2022-10-28T04:03:22;13.40;99.90
8676;DHT22;4375;52.486;13.424;2022-10-28T04:05:48;13.40;99.90
8676;DHT22;4375;52.486;13.424;2022-10-28T04:08:15;13.30;99.90
8676;DHT22;4375;52.486;13.424;2022-10-28T04:10:42;13.30;99.90
8676;DHT22;4375;52.486;13.424;2022-10-28T04:13:08;13.30;99.90
8676;DHT22;4375;52.486;13.424;2022-10-28T04:15:34;13.30;99.90
8676;DHT22;4375;52.486;13.424;2022-10-28T04:18:01;13.30;99.90
8676;DHT22;4375;52.486;13.424;2022-10-28T04:20:27;13.30;99.90
8676;DHT22;4375;52.486;13.424;2022-10-28T04:22:53;13.30;99.90
8676;DHT22;4375;52.486;13.424;2022-10-28T04:25:20;13.30;99.90
8676;DHT22;4375;52.486;13.424;2022-10-28T04:27:45;13.20;99.90
8676;DHT22;4375;52.486;13.424;2022-10-28T04:30:11;13.30;99.90
8676;DHT22;4375;52.486;13.424;2022-10-28T04:32:38;13.30;99.90
8676;DHT22;4375;52.486;13.424;2022-10-28T04:35:04;13.20;99.90
8676;DHT22;4375;52.486;13.424;2022-10-28T04:37:30;13.20;99.90
8676;DHT22;4375;52.486;13.424;2022-10-28T04:39:55;13.10;99.90
8676;DHT22;4375;52.486;13.424;2022-10-28T04:42:22;13.10;99.90
8676;DHT22;4375;52.486;13.424;2022-10-28T04:44:48;13.10;99.90
8676;DHT22;4375;52.486;13.424;2022-10-28T04:47:14;13.10;99.90
8676;DHT22;4375;52.486;13.424;2022-10-28T04:49:40;13.10;99.90
8676;DHT22;4375;52.486;13.424;2022-10-28T04:52:06;13.00;99.90
8676;DHT22;4375;52.486;13.424;2022-10-28T04:54:31;13.00;99.90
8676;DHT22;4375;52.486;13.424;2022-10-28T04:56:57;13.00;99.90
8676;DHT22;4375;52.486;13.424;2022-10-28T04:59:23;12.90;99.90
8676;DHT22;4375;52.486;13.424;2022-10-28T05:01:48;13.00;99.90
8676;DHT22;4375;52.486;13.424;2022-10-28T05:04:14;12.90;99.90
8676;DHT22;4375;52.486;13.424;2022-10-28T05:06:39;12.90;99.90
8676;DHT22;4375;52.486;13.424;2022-10-28T05:09:05;12.90;99.90
8676;DHT22;4375;52.486;13.424;2022-10-28T05:11:30;12.90;99.90
8676;DHT22;4375;52.486;13.424;2022-10-28T05:13:56;12.90;99.90
8676;DHT22;4375;52.486;13.424;2022-10-28T05:16:22;13.00;99.90
8676;DHT22;4375;52.486;13.424;2022-10-28T05:18:48;12.90;99.90
8676;DHT22;4375;52.486;13.424;2022-10-28T05:21:13;12.90;99.90
8676;DHT22;4375;52.486;13.424;2022-10-28T05:23:39;12.90;99.90
8676;DHT22;4375;52.486;13.424;2022-10-28T05:26:05;12.90;99.90
8676;DHT22;4375;52.486;13.424;2022-10-28T05:28:30;12.90;99.90
8676;DHT22;4375;52.486;13.424;2022-10-28T05:30:56;13.00;99.90
8676;DHT22;4375;52.486;13.424;2022-10-28T05:33:22;13.00;99.90
8676;DHT22;4375;52.486;13.424;2022-10-28T05:35:47;13.00;99.90
8676;DHT22;4375;52.486;13.424;2022-10-28T05:38:13;13.00;99.90
8676;DHT22;4375;52.486;13.424;2022-10-28T05:40:38;13.10;99.90
8676;DHT22;4375;52.486;13.424;2022-10-28T05:43:04;13.10;99.90
8676;DHT22;4375;52.486;13.424;2022-10-28T05:45:30;13.10;99.90
8676;DHT22;4375;52.486;13.424;2022-10-28T05:47:56;13.10;99.90
8676;DHT22;4375;52.486;13.424;2022-10-28T05:50:22;13.20;99.90
8676;DHT22;4375;52.486;13.424;2022-10-28T05:52:53;13.20;99.90
8676;DHT22;4375;52.486;13.424;2022-10-28T05:55:20;13.20;99.90
8676;DHT22;4375;52.486;13.424;2022-10-28T05:57:47;13.20;99.90
8676;DHT22;4375;52.486;13.424;2022-10-28T06:00:13;13.30;99.90
8676;DHT22;4375;52.486;13.424;2022-10-28T06:02:40;13.40;99.90
8676;DHT22;4375;52.486;13.424;2022-10-28T06:05:06;13.40;99.90
8676;DHT22;4375;52.486;13.424;2022-10-28T06:07:32;13.40;99.90
8676;DHT22;4375;52.486;13.424;2022-10-28T06:09:59;13.40;99.90
8676;DHT22;4375;52.486;13.424;2022-10-28T06:12:25;13.40;99.90
8676;DHT22;4375;52.486;13.424;2022-10-28T06:14:50;13.50;99.90
8676;DHT22;4375;52.486;13.424;2022-10-28T06:17:16;13.50;99.90
8676;DHT22;4375;52.486;13.424;2022-10-28T06:19:42;13.50;99.90
8676;DHT22;4375;52.486;13.424;2022-10-28T06:22:07;13.60;99.90
8676;DHT22;4375;52.486;13.424;2022-10-28T06:24:33;13.60;99.90
8676;DHT22;4375;52.486;13.424;2022-10-28T06:26:58;13.70;99.90
8676;DHT22;4375;52.486;13.424;2022-10-28T06:29:24;13.70;99.90
8676;DHT22;4375;52.486;13.424;2022-10-28T06:31:50;13.70;99.90
8676;DHT22;4375;52.486;13.424;2022-10-28T06:34:16;13.70;99.90
8676;DHT22;4375;52.486;13.424;2022-10-28T06:36:41;13.80;99.90
8676;DHT22;4375;52.486;13.424;2022-10-28T06:39:07;13.80;99.90
8676;DHT22;4375;52.486;13.424;2022-10-28T06:41:33;13.80;99.90
8676;DHT22;4375;52.486;13.424;2022-10-28T06:43:59;13.80;99.90
8676;DHT22;4375;52.486;13.424;2022-10-28T06:46:25;13.80;99.90
8676;DHT22;4375;52.486;13.424;2022-10-28T06:48:53;13.90;99.90
8676;DHT22;4375;52.486;13.424;2022-10-28T06:51:18;13.90;99.90
8676;DHT22;4375;52.486;13.424;2022-10-28T06:53:48;13.90;99.90
8676;DHT22;4375;52.486;13.424;2022-10-28T06:56:14;13.90;99.90
8676;DHT22;4375;52.486;13.424;2022-10-28T06:58:40;13.90;99.90
8676;DHT22;4375;52.486;13.424;2022-10-28T07:01:06;13.90;99.90
8676;DHT22;4375;52.486;13.424;2022-10-28T07:03:32;14.00;99.90
8676;DHT22;4375;52.486;13.424;2022-10-28T07:05:58;14.00;99.90
8676;DHT22;4375;52.486;13.424;2022-10-28T07:08:25;14.00;99.90
8676;DHT22;4375;52.486;13.424;2022-10-28T07:10:58;14.00;99.90
8676;DHT22;4375;52.486;13.424;2022-10-28T07:13:24;14.00;99.90
8676;DHT22;4375;52.486;13.424;2022-10-28T07:15:51;14.00;99.90
8676;DHT22;4375;52.486;13.424;2022-10-28T07:18:17;14.00;99.90
8676;DHT22;4375;52.486;13.424;2022-10-28T07:20:43;14.10;99.90
8676;DHT22;4375;52.486;13.424;2022-10-28T07:23:08;14.10;99.90
8676;DHT22;4375;52.486;13.424;2022-10-28T07:25:34;14.10;99.90
8676;DHT22;4375;52.486;13.424;2022-10-28T07:27:59;14.10;99.90
8676;DHT22;4375;52.486;13.424;2022-10-28T07:30:27;14.10;99.90
8676;DHT22;4375;52.486;13.424;2022-10-28T07:32:53;14.10;99.90
8676;DHT22;4375;52.486;13.424;2022-10-28T07:35:19;14.20;99.90
8676;DHT22;4375;52.486;13.424;2022-10-28T07:37:45;14.30;99.90
8676;DHT22;4375;52.486;13.424;2022-10-28T07:40:11;14.40;99.90
8676;DHT22;4375;52.486;13.424;2022-10-28T07:42:36;14.50;99.90
8676;DHT22;4375;52.486;13.424;2022-10-28T07:45:03;14.60;99.90
8676;DHT22;4375;52.486;13.424;2022-10-28T07:47:29;14.70;99.90
8676;DHT22;4375;52.486;13.424;2022-10-28T07:49:54;14.80;99.90
8676;DHT22;4375;52.486;13.424;2022-10-28T07:52:23;14.90;99.90
8676;DHT22;4375;52.486;13.424;2022-10-28T07:54:50;14.90;99.90
8676;DHT22;4375;52.486;13.424;2022-10-28T07:57:16;15.00;99.90
8676;DHT22;4375;52.486;13.424;2022-10-28T07:59:42;15.00;99.90
8676;DHT22;4375;52.486;13.424;2022-10-28T08:02:13;15.10;99.90
8676;DHT22;4375;52.486;13.424;2022-10-28T08:04:39;15.20;99.90
8676;DHT22;4375;52.486;13.424;2022-10-28T08:07:05;15.20;99.90
8676;DHT22;4375;52.486;13.424;2022-10-28T08:09:31;15.20;99.90
8676;DHT22;4375;52.486;13.424;2022-10-28T08:11:56;15.30;99.90
8676;DHT22;4375;52.486;13.424;2022-10-28T08:14:22;15.40;99.90
8676;DHT22;4375;52.486;13.424;2022-10-28T08:16:48;15.50;99.90
8676;DHT22;4375;52.486;13.424;2022-10-28T08:19:13;15.60;99.90
8676;DHT22;4375;52.486;13.424;2022-10-28T08:21:39;15.80;99.90
8676;DHT22;4375;52.486;13.424;2022-10-28T08:24:05;15.90;99.90
8676;DHT22;4375;52.486;13.424;2022-10-28T08:26:30;16.00;99.90
8676;DHT22;4375;52.486;13.424;2022-10-28T08:28:56;16.10;99.90
8676;DHT22;4375;52.486;13.424;2022-10-28T08:31:22;16.20;99.90
8676;DHT22;4375;52.486;13.424;2022-10-28T08:33:48;16.20;99.90
8676;DHT22;4375;52.486;13.424;2022-10-28T08:36:15;16.40;99.90
8676;DHT22;4375;52.486;13.424;2022-10-28T08:38:45;16.60;99.90
8676;DHT22;4375;52.486;13.424;2022-10-28T08:44:08;16.90;99.90
8676;DHT22;4375;52.486;13.424;2022-10-28T08:46:53;17.20;99.90
8676;DHT22;4375;52.486;13.424;2022-10-28T08:49:23;17.20;99.90
8676;DHT22;4375;52.486;13.424;2022-10-28T08:54:35;16.90;99.90
8676;DHT22;4375;52.486;13.424;2022-10-28T08:57:07;16.80;99.90
8676;DHT22;4375;52.486;13.424;2022-10-28T08:59:39;16.90;99.90
8676;DHT22;4375;52.486;13.424;2022-10-28T09:02:24;16.90;99.90
8676;DHT22;4375;52.486;13.424;2022-10-28T09:04:58;17.00;99.90
8676;DHT22;4375;52.486;13.424;2022-10-28T09:07:25;17.10;99.90
8676;DHT22;4375;52.486;13.424;2022-10-28T09:09:52;17.20;99.90
8676;DHT22;4375;52.486;13.424;2022-10-28T09:17:51;17.50;99.90
8676;DHT22;4375;52.486;13.424;2022-10-28T09:20:20;17.40;99.90
8676;DHT22;4375;52.486;13.424;2022-10-28T09:22:56;17.30;99.90
8676;DHT22;4375;52.486;13.424;2022-10-28T09:25:36;17.30;99.90
8676;DHT22;4375;52.486;13.424;2022-10-28T09:30:49;17.50;99.90
8676;DHT22;4375;52.486;13.424;2022-10-28T09:36:11;17.60;99.90
8676;DHT22;4375;52.486;13.424;2022-10-28T09:38:39;17.80;99.90
8676;DHT22;4375;52.486;13.424;2022-10-28T09:41:26;17.90;99.90
8676;DHT22;4375;52.486;13.424;2022-10-28T09:44:47;18.00;99.90
8676;DHT22;4375;52.486;13.424;2022-10-28T09:46:56;18.00;99.90
8676;DHT22;4375;52.486;13.424;2022-10-28T09:49:28;18.00;99.90
8676;DHT22;4375;52.486;13.424;2022-10-28T09:52:24;18.20;99.90
8676;DHT22;4375;52.486;13.424;2022-10-28T09:54:53;18.30;99.90
8676;DHT22;4375;52.486;13.424;2022-10-28T09:57:28;18.30;99.90
8676;DHT22;4375;52.486;13.424;2022-10-28T09:59:54;18.30;99.90
8676;DHT22;4375;52.486;13.424;2022-10-28T10:04:51;18.60;99.90
8676;DHT22;4375;52.486;13.424;2022-10-28T10:07:37;18.70;99.90
8676;DHT22;4375;52.486;13.424;2022-10-28T10:10:21;19.00;99.90
8676;DHT22;4375;52.486;13.424;2022-10-28T10:12:52;19.20;99.90
8676;DHT22;4375;52.486;13.424;2022-10-28T10:15:27;19.20;99.90
8676;DHT22;4375;52.486;13.424;2022-10-28T10:17:56;19.30;99.90
8676;DHT22;4375;52.486;13.424;2022-10-28T10:20:22;19.30;99.90
8676;DHT22;4375;52.486;13.424;2022-10-28T10:22:48;19.30;99.90
8676;DHT22;4375;52.486;13.424;2022-10-28T10:28:00;19.40;99.90
8676;DHT22;4375;52.486;13.424;2022-10-28T10:30:37;19.40;99.90
8676;DHT22;4375;52.486;13.424;2022-10-28T10:33:03;19.30;99.90
8676;DHT22;4375;52.486;13.424;2022-10-28T10:35:30;19.30;99.90
8676;DHT22;4375;52.486;13.424;2022-10-28T10:37:58;19.40;99.90
8676;DHT22;4375;52.486;13.424;2022-10-28T10:40:32;19.40;99.90
8676;DHT22;4375;52.486;13.424;2022-10-28T10:43:34;19.40;99.90
8676;DHT22;4375;52.486;13.424;2022-10-28T10:46:16;19.40;99.90
8676;DHT22;4375;52.486;13.424;2022-10-28T10:48:43;19.40;99.90
8676;DHT22;4375;52.486;13.424;2022-10-28T10:53:40;19.60;99.90
8676;DHT22;4375;52.486;13.424;2022-10-28T10:56:08;19.70;99.90
8676;DHT22;4375;52.486;13.424;2022-10-28T10:58:48;19.70;99.90
8676;DHT22;4375;52.486;13.424;2022-10-28T11:01:25;19.60;99.90
8676;DHT22;4375;52.486;13.424;2022-10-28T11:03:58;19.70;99.90
8676;DHT22;4375;52.486;13.424;2022-10-28T11:06:38;19.70;99.90
8676;DHT22;4375;52.486;13.424;2022-10-28T11:09:11;19.80;99.90
8676;DHT22;4375;52.486;13.424;2022-10-28T11:11:41;19.90;99.90
8676;DHT22;4375;52.486;13.424;2022-10-28T11:16:48;20.00;99.90
8676;DHT22;4375;52.486;13.424;2022-10-28T11:19:32;20.10;99.90
8676;DHT22;4375;52.486;13.424;2022-10-28T11:27:33;20.30;99.90
8676;DHT22;4375;52.486;13.424;2022-10-28T11:30:05;20.30;99.90
8676;DHT22;4375;52.486;13.424;2022-10-28T11:35:55;20.40;99.90
8676;DHT22;4375;52.486;13.424;2022-10-28T11:39:00;20.50;99.90
8676;DHT22;4375;52.486;13.424;2022-10-28T11:43:53;20.60;99.90
8676;DHT22;4375;52.486;13.424;2022-10-28T11:46:53;20.60;99.90
8676;DHT22;4375;52.486;13.424;2022-10-28T11:55:44;20.80;99.90
8676;DHT22;4375;52.486;13.424;2022-10-28T12:06:27;20.80;99.90
8676;DHT22;4375;52.486;13.424;2022-10-28T12:17:18;21.00;99.90
8676;DHT22;4375;52.486;13.424;2022-10-28T12:19:55;21.30;99.90
8676;DHT22;4375;52.486;13.424;2022-10-28T12:25:14;21.60;99.90
8676;DHT22;4375;52.486;13.424;2022-10-28T12:30:33;21.70;99.90
8676;DHT22;4375;52.486;13.424;2022-10-28T12:33:21;21.80;99.90
8676;DHT22;4375;52.486;13.424;2022-10-28T12:49:42;21.20;99.90
8676;DHT22;4375;52.486;13.424;2022-10-28T12:58:03;21.00;99.90
8676;DHT22;4375;52.486;13.424;2022-10-28T13:03:31;21.20;99.90
8676;DHT22;4375;52.486;13.424;2022-10-28T13:28:16;20.80;99.90
8676;DHT22;4375;52.486;13.424;2022-10-28T13:30:54;20.90;99.90
8676;DHT22;4375;52.486;13.424;2022-10-28T13:33:27;20.80;99.90
8676;DHT22;4375;52.486;13.424;2022-10-28T13:35:54;20.90;99.90
8676;DHT22;4375;52.486;13.424;2022-10-28T13:38:32;20.80;99.90
8676;DHT22;4375;52.486;13.424;2022-10-28T13:49:27;20.80;99.90
8676;DHT22;4375;52.486;13.424;2022-10-28T13:57:32;20.80;99.90
8676;DHT22;4375;52.486;13.424;2022-10-28T14:05:14;20.70;99.90
8676;DHT22;4375;52.486;13.424;2022-10-28T14:07:53;20.60;99.90
8676;DHT22;4375;52.486;13.424;2022-10-28T14:10:21;20.60;99.90
8676;DHT22;4375;52.486;13.424;2022-10-28T14:15:31;20.50;99.90
8676;DHT22;4375;52.486;13.424;2022-10-28T14:39:23;20.40;99.90
8676;DHT22;4375;52.486;13.424;2022-10-28T14:42:06;20.40;99.90
8676;DHT22;4375;52.486;13.424;2022-10-28T14:50:44;20.30;99.90
8676;DHT22;4375;52.486;13.424;2022-10-28T14:53:32;20.30;99.90
8676;DHT22;4375;52.486;13.424;2022-10-28T14:56:30;20.40;99.90
8676;DHT22;4375;52.486;13.424;2022-10-28T15:04:32;20.30;99.90
8676;DHT22;4375;52.486;13.424;2022-10-28T15:06:58;20.30;99.90
8676;DHT22;4375;52.486;13.424;2022-10-28T15:09:31;20.30;99.90
8676;DHT22;4375;52.486;13.424;2022-10-28T15:12:09;20.30;99.90
8676;DHT22;4375;52.486;13.424;2022-10-28T15:17:20;20.00;99.90
8676;DHT22;4375;52.486;13.424;2022-10-28T15:19:51;20.00;99.90
8676;DHT22;4375;52.486;13.424;2022-10-28T15:22:22;19.90;99.90
8676;DHT22;4375;52.486;13.424;2022-10-28T15:25:05;19.80;99.90
8676;DHT22;4375;52.486;13.424;2022-10-28T15:27:35;19.80;99.90
8676;DHT22;4375;52.486;13.424;2022-10-28T15:30:04;19.70;99.90
8676;DHT22;4375;52.486;13.424;2022-10-28T15:32:33;19.70;99.90
8676;DHT22;4375;52.486;13.424;2022-10-28T15:37:51;19.50;99.90
8676;DHT22;4375;52.486;13.424;2022-10-28T15:40:26;19.40;99.90
8676;DHT22;4375;52.486;13.424;2022-10-28T15:42:57;19.30;99.90
8676;DHT22;4375;52.486;13.424;2022-10-28T15:45:26;19.20;99.90
8676;DHT22;4375;52.486;13.424;2022-10-28T15:47:52;19.10;99.90
8676;DHT22;4375;52.486;13.424;2022-10-28T15:50:27;19.10;99.90
8676;DHT22;4375;52.486;13.424;2022-10-28T15:53:20;19.00;99.90
8676;DHT22;4375;52.486;13.424;2022-10-28T15:56:07;18.90;99.90
8676;DHT22;4375;52.486;13.424;2022-10-28T16:03:58;18.70;99.90
8676;DHT22;4375;52.486;13.424;2022-10-28T16:06:29;18.70;99.90
8676;DHT22;4375;52.486;13.424;2022-10-28T16:11:45;18.60;99.90
8676;DHT22;4375;52.486;13.424;2022-10-28T16:14:33;18.60;99.90
8676;DHT22;4375;52.486;13.424;2022-10-28T16:19:49;18.50;99.90
8676;DHT22;4375;52.486;13.424;2022-10-28T16:22:16;18.50;99.90
8676;DHT22;4375;52.486;13.424;2022-10-28T16:24:43;18.40;99.90
8676;DHT22;4375;52.486;13.424;2022-10-28T16:27:24;18.40;99.90
8676;DHT22;4375;52.486;13.424;2022-10-28T16:29:50;18.40;99.90
8676;DHT22;4375;52.486;13.424;2022-10-28T16:32:22;18.40;99.90
8676;DHT22;4375;52.486;13.424;2022-10-28T16:34:48;18.40;99.90
8676;DHT22;4375;52.486;13.424;2022-10-28T16:37:21;18.40;99.90
8676;DHT22;4375;52.486;13.424;2022-10-28T16:39:47;18.40;99.90
8676;DHT22;4375;52.486;13.424;2022-10-28T16:42:14;18.30;99.90
8676;DHT22;4375;52.486;13.424;2022-10-28T16:44:40;18.30;99.90
8676;DHT22;4375;52.486;13.424;2022-10-28T16:47:13;18.30;99.90
8676;DHT22;4375;52.486;13.424;2022-10-28T16:49:42;18.30;99.90
8676;DHT22;4375;52.486;13.424;2022-10-28T16:52:14;18.20;99.90
8676;DHT22;4375;52.486;13.424;2022-10-28T16:54:41;18.20;99.90
8676;DHT22;4375;52.486;13.424;2022-10-28T16:57:06;18.10;99.90
8676;DHT22;4375;52.486;13.424;2022-10-28T16:59:34;18.10;99.90
8676;DHT22;4375;52.486;13.424;2022-10-28T17:02:00;18.00;99.90
8676;DHT22;4375;52.486;13.424;2022-10-28T17:04:28;18.10;99.90
8676;DHT22;4375;52.486;13.424;2022-10-28T17:06:55;18.00;99.90
8676;DHT22;4375;52.486;13.424;2022-10-28T17:09:20;18.00;99.90
8676;DHT22;4375;52.486;13.424;2022-10-28T17:11:46;17.90;99.90
8676;DHT22;4375;52.486;13.424;2022-10-28T17:14:12;17.90;99.90
8676;DHT22;4375;52.486;13.424;2022-10-28T17:16:37;17.90;99.90
8676;DHT22;4375;52.486;13.424;2022-10-28T17:19:03;17.90;99.90
8676;DHT22;4375;52.486;13.424;2022-10-28T17:21:28;17.90;99.90
8676;DHT22;4375;52.486;13.424;2022-10-28T17:23:54;17.80;99.90
8676;DHT22;4375;52.486;13.424;2022-10-28T17:26:20;17.80;99.90
8676;DHT22;4375;52.486;13.424;2022-10-28T17:28:50;17.80;99.90
8676;DHT22;4375;52.486;13.424;2022-10-28T17:31:16;17.80;99.90
8676;DHT22;4375;52.486;13.424;2022-10-28T17:33:42;17.70;99.90
8676;DHT22;4375;52.486;13.424;2022-10-28T17:36:08;17.70;99.90
8676;DHT22;4375;52.486;13.424;2022-10-28T17:38:34;17.70;99.90
8676;DHT22;4375;52.486;13.424;2022-10-28T17:41:00;17.70;99.90
8676;DHT22;4375;52.486;13.424;2022-10-28T17:43:27;17.70;99.90
8676;DHT22;4375;52.486;13.424;2022-10-28T17:46:02;17.70;99.90
8676;DHT22;4375;52.486;13.424;2022-10-28T17:48:28;17.70;99.90
8676;DHT22;4375;52.486;13.424;2022-10-28T17:50:54;17.70;99.90
8676;DHT22;4375;52.486;13.424;2022-10-28T17:53:20;17.60;99.90
8676;DHT22;4375;52.486;13.424;2022-10-28T17:55:57;17.60;99.90
8676;DHT22;4375;52.486;13.424;2022-10-28T17:58:23;17.60;99.90
8676;DHT22;4375;52.486;13.424;2022-10-28T18:00:54;17.70;99.90
8676;DHT22;4375;52.486;13.424;2022-10-28T18:03:19;17.60;99.90
8676;DHT22;4375;52.486;13.424;2022-10-28T18:05:45;17.60;99.90
8676;DHT22;4375;52.486;13.424;2022-10-28T18:08:11;17.60;99.90
8676;DHT22;4375;52.486;13.424;2022-10-28T18:10:36;17.70;99.90
8676;DHT22;4375;52.486;13.424;2022-10-28T18:13:02;17.60;99.90
8676;DHT22;4375;52.486;13.424;2022-10-28T18:15:27;17.60;99.90
8676;DHT22;4375;52.486;13.424;2022-10-28T18:17:53;17.60;99.90
8676;DHT22;4375;52.486;13.424;2022-10-28T18:20:19;17.60;99.90
8676;DHT22;4375;52.486;13.424;2022-10-28T18:22:44;17.50;99.90
8676;DHT22;4375;52.486;13.424;2022-10-28T18:25:10;17.60;99.90
8676;DHT22;4375;52.486;13.424;2022-10-28T18:27:36;17.50;99.90
8676;DHT22;4375;52.486;13.424;2022-10-28T18:30:02;17.60;99.90
8676;DHT22;4375;52.486;13.424;2022-10-28T18:32:28;17.50;99.90
8676;DHT22;4375;52.486;13.424;2022-10-28T18:34:54;17.50;99.90
8676;DHT22;4375;52.486;13.424;2022-10-28T18:37:19;17.40;99.90
8676;DHT22;4375;52.486;13.424;2022-10-28T18:39:45;17.40;99.90
8676;DHT22;4375;52.486;13.424;2022-10-28T18:42:10;17.40;99.90
8676;DHT22;4375;52.486;13.424;2022-10-28T18:44:36;17.40;99.90
8676;DHT22;4375;52.486;13.424;2022-10-28T18:47:02;17.40;99.90
8676;DHT22;4375;52.486;13.424;2022-10-28T18:49:28;17.40;99.90
8676;DHT22;4375;52.486;13.424;2022-10-28T18:51:54;17.30;99.90
8676;DHT22;4375;52.486;13.424;2022-10-28T18:54:19;17.30;99.90
8676;DHT22;4375;52.486;13.424;2022-10-28T18:56:45;17.30;99.90
8676;DHT22;4375;52.486;13.424;2022-10-28T18:59:11;17.30;99.90
8676;DHT22;4375;52.486;13.424;2022-10-28T19:01:36;17.30;99.90
8676;DHT22;4375;52.486;13.424;2022-10-28T19:04:03;17.20;99.90
8676;DHT22;4375;52.486;13.424;2022-10-28T19:06:30;17.20;99.90
8676;DHT22;4375;52.486;13.424;2022-10-28T19:09:01;17.20;99.90
8676;DHT22;4375;52.486;13.424;2022-10-28T19:11:29;17.20;99.90
8676;DHT22;4375;52.486;13.424;2022-10-28T19:13:57;17.20;99.90
8676;DHT22;4375;52.486;13.424;2022-10-28T19:16:24;17.20;99.90
8676;DHT22;4375;52.486;13.424;2022-10-28T19:18:56;17.10;99.90
8676;DHT22;4375;52.486;13.424;2022-10-28T19:21:22;17.20;99.90
8676;DHT22;4375;52.486;13.424;2022-10-28T19:23:48;17.20;99.90
8676;DHT22;4375;52.486;13.424;2022-10-28T19:26:14;17.10;99.90
8676;DHT22;4375;52.486;13.424;2022-10-28T19:28:42;17.20;99.90
8676;DHT22;4375;52.486;13.424;2022-10-28T19:31:20;17.10;99.90
8676;DHT22;4375;52.486;13.424;2022-10-28T19:33:46;17.10;99.90
8676;DHT22;4375;52.486;13.424;2022-10-28T19:38:48;17.10;99.90
8676;DHT22;4375;52.486;13.424;2022-10-28T19:41:18;17.10;99.90